Egypt, Arkansas
Current Conditions -  °F | °C
As of 9:53 PM on Wednesday 22 Oct 2014 (Local Time) from KJBR Reporting Station
Clear Clear  
Wind Chill: 52°   Ceiling: Unl
Heat Index: 52°   Visibility: 10mi
Dew Point: 44°   Wind: 6mph
Humidity: 74%   Direction: 30°NNE
Pressure: 30.21"   Gusts: NA
Location:  35.87°N, 90.95°W
Report Text: KJBR 230253Z AUTO 03005KT 10SM CLR 11/07 A3021 RMK AO2 SLP227 T01110067 53006
Loading
Personal Weather Stations






























Interactive Weather Map
Tropical Storm Tracking
New forecast layout! Learn more

10-Day Weather Forecast

Advertisements
Track Severe Weather on mobile